Helena, Alabama
Current Conditions -  °F | °C
As of 1:53 PM on Monday 24 Nov 2014 (Local Time) from KEET Reporting Station
Clear Clear  
Wind Chill: 67°   Ceiling: Unl
Heat Index: 67°   Visibility: 10mi
Dew Point: 45°   Wind: 7mph
Humidity: 45%   Direction: NA
Pressure: 29.86"   Gusts: NA
Location:  33.3°N, 86.84°W
Report Text: KEET 241953Z AUTO VRB06KT 10SM CLR 19/07 A2986 RMK AO2 SLP105 T01940072
Loading
Personal Weather Stations






























Interactive Weather Map New forecast layout! Learn more

10-Day Weather Forecast

Advertisements
Track Severe Weather on mobile